Time;durP1;ratioP1;P1;durP2;ratioP2;P2;SDS_P1;SDS_P2;PMS_P1;PMS_P2;Temp;Humidity;BMP_temperature;BMP_pressure;BME280_temperature;BME280_humidity;BME280_pressure;Samples;Min_cycle;Max_cycle;Signal;HPM_P1;HPM_P2
2023/05/03 03:02:32;;;;;;;10.68;5.22;;;4.30;99.90;;;;;;5019352;23;20047;-80
2023/05/03 03:04:58;;;;;;;12.00;5.22;;;4.30;99.90;;;;;;4940874;29;20118;-81
2023/05/03 03:07:23;;;;;;;11.82;5.45;;;4.30;99.90;;;;;;4940529;29;20043;-81
2023/05/03 03:09:49;;;;;;;12.50;4.90;;;4.30;99.90;;;;;;4940743;29;20122;-80
2023/05/03 03:12:15;;;;;;;9.70;4.90;;;4.20;99.90;;;;;;4940745;29;20050;-80
2023/05/03 03:14:41;;;;;;;10.73;5.07;;;4.20;99.90;;;;;;4957932;28;20038;-79
2023/05/03 03:17:08;;;;;;;8.52;4.47;;;4.10;99.90;;;;;;4940643;29;20071;-79
2023/05/03 03:19:33;;;;;;;8.73;5.25;;;4.10;99.90;;;;;;4940874;29;20047;-81
2023/05/03 03:21:59;;;;;;;9.50;4.78;;;4.10;99.90;;;;;;4958290;28;20493;-79
2023/05/03 03:24:25;;;;;;;12.52;5.68;;;4.10;99.90;;;;;;4940327;29;20126;-80
2023/05/03 03:26:51;;;;;;;9.80;5.35;;;4.00;99.90;;;;;;4957839;29;20137;-81
2023/05/03 03:29:17;;;;;;;10.02;5.13;;;4.00;99.90;;;;;;4940520;29;20094;-80
2023/05/03 03:31:43;;;;;;;10.50;5.53;;;4.00;99.90;;;;;;4938235;29;20050;-81
2023/05/03 03:34:13;;;;;;;12.30;5.72;;;4.00;99.90;;;;;;4940213;29;20047;-81
2023/05/03 03:36:39;;;;;;;9.75;5.43;;;4.00;99.90;;;;;;4924503;29;20066;-80
2023/05/03 03:39:05;;;;;;;10.27;5.75;;;4.00;99.90;;;;;;4957549;28;20479;-79
2023/05/03 03:41:35;;;;;;;9.48;5.38;;;3.90;99.90;;;;;;4956976;28;20035;-80
2023/05/03 03:44:00;;;;;;;12.38;5.85;;;3.90;99.90;;;;;;4940059;29;20047;-80
2023/05/03 03:46:26;;;;;;;8.48;4.97;;;3.90;99.90;;;;;;4956777;29;20122;-80
2023/05/03 03:48:52;;;;;;;8.65;5.10;;;3.80;99.90;;;;;;4940057;29;20102;-81
2023/05/03 03:51:17;;;;;;;12.07;6.20;;;3.90;99.90;;;;;;4939670;29;20045;-80
2023/05/03 03:53:43;;;;;;;15.00;7.03;;;3.90;99.90;;;;;;4957097;28;20043;-79
2023/05/03 03:56:09;;;;;;;9.98;5.80;;;3.80;99.90;;;;;;4939946;29;20110;-81
2023/05/03 03:58:35;;;;;;;10.93;6.43;;;3.90;99.90;;;;;;4939461;29;20054;-80
2023/05/03 04:01:00;;;;;;;13.50;6.35;;;3.80;99.90;;;;;;4923063;29;20105;-78
2023/05/03 04:03:26;;;;;;;16.33;6.63;;;3.80;99.90;;;;;;4923849;29;20418;-80
2023/05/03 04:05:52;;;;;;;10.75;6.18;;;3.80;99.90;;;;;;4924119;29;20758;-81
2023/05/03 04:08:18;;;;;;;11.30;5.47;;;3.80;99.90;;;;;;4939938;29;20070;-80
2023/05/03 04:10:43;;;;;;;14.02;6.35;;;3.80;99.90;;;;;;4939548;29;20347;-80
2023/05/03 04:13:09;;;;;;;18.00;7.88;;;3.90;99.90;;;;;;4938870;29;20050;-79
2023/05/03 04:15:35;;;;;;;12.68;6.63;;;3.80;99.90;;;;;;4956620;29;20041;-80
2023/05/03 04:18:00;;;;;;;11.57;6.68;;;3.90;99.90;;;;;;4939469;29;20047;-80
2023/05/03 04:20:26;;;;;;;13.50;6.20;;;3.80;99.90;;;;;;4938992;28;20098;-82
2023/05/03 04:23:04;;;;;;;11.88;6.60;;;3.80;99.90;;;;;;4938726;29;20051;-79
2023/05/03 04:25:30;;;;;;;13.80;6.63;;;3.90;99.90;;;;;;4938792;29;20399;-80
2023/05/03 04:27:57;;;;;;;12.10;5.97;;;3.90;99.90;;;;;;4923842;29;20407;-81
2023/05/03 04:30:23;;;;;;;15.65;6.18;;;3.90;99.90;;;;;;4957535;28;20426;-80
2023/05/03 04:32:53;;;;;;;16.50;6.18;;;4.00;99.90;;;;;;4923845;29;20047;-80
2023/05/03 04:35:25;;;;;;;13.00;6.22;;;4.00;99.90;;;;;;4924124;29;20035;-80
2023/05/03 04:37:50;;;;;;;9.57;6.07;;;4.10;99.90;;;;;;4956944;29;20039;-81
2023/05/03 04:40:18;;;;;;;11.55;5.82;;;4.20;99.90;;;;;;4939014;28;20047;-79
2023/05/03 04:42:44;;;;;;;10.13;5.43;;;4.30;99.90;;;;;;4938769;29;20097;-80
2023/05/03 04:45:10;;;;;;;14.38;6.30;;;4.40;99.90;;;;;;4923045;29;20142;-79
2023/05/03 04:47:36;;;;;;;13.43;5.47;;;4.50;99.90;;;;;;4918713;29;20048;-79
2023/05/03 04:50:02;;;;;;;10.45;5.88;;;4.50;99.90;;;;;;4936386;29;20046;-78
2023/05/03 04:52:28;;;;;;;11.48;5.70;;;4.60;99.90;;;;;;4936182;29;20189;-78
2023/05/03 04:54:53;;;;;;;14.05;6.30;;;4.60;99.90;;;;;;4925619;29;20050;-78
2023/05/03 04:57:19;;;;;;;11.00;6.05;;;4.60;99.90;;;;;;4956803;29;20043;-78
2023/05/03 04:59:45;;;;;;;11.02;5.38;;;4.70;99.90;;;;;;4938992;29;20043;-80
2023/05/03 05:02:11;;;;;;;8.55;5.22;;;4.70;99.90;;;;;;4938439;29;20451;-80
2023/05/03 05:04:36;;;;;;;14.70;6.47;;;4.70;99.90;;;;;;4937672;29;20506;-80
2023/05/03 05:07:02;;;;;;;11.00;5.90;;;4.80;99.90;;;;;;4938553;29;20098;-79
2023/05/03 05:09:30;;;;;;;12.07;5.60;;;4.80;99.90;;;;;;4938778;29;20118;-79
2023/05/03 05:11:56;;;;;;;9.60;5.53;;;4.80;99.90;;;;;;4921807;29;20079;-80
2023/05/03 05:14:22;;;;;;;12.15;5.55;;;4.80;99.90;;;;;;4938389;29;20086;-77
2023/05/03 05:16:47;;;;;;;8.30;5.82;;;4.90;99.90;;;;;;4938018;29;20043;-79
2023/05/03 05:19:13;;;;;;;10.90;5.45;;;4.90;99.90;;;;;;4922423;29;20082;-78
2023/05/03 05:21:39;;;;;;;12.52;5.57;;;5.00;99.90;;;;;;4955134;28;20237;-79
2023/05/03 05:24:04;;;;;;;10.43;5.55;;;5.10;99.90;;;;;;4938916;29;20047;-79
2023/05/03 05:26:31;;;;;;;10.63;6.05;;;5.20;99.90;;;;;;4938184;29;20086;-79
2023/05/03 05:28:56;;;;;;;12.55;5.93;;;5.20;99.90;;;;;;4938071;29;20039;-78
2023/05/03 05:31:23;;;;;;;11.48;5.50;;;5.30;99.90;;;;;;4937779;29;20454;-78
2023/05/03 05:33:49;;;;;;;13.02;5.90;;;5.40;99.90;;;;;;4938531;29;20114;-80
2023/05/03 05:36:15;;;;;;;12.45;6.45;;;5.50;99.90;;;;;;4938318;29;20076;-78
2023/05/03 05:38:41;;;;;;;11.80;6.35;;;5.50;99.90;;;;;;4937805;29;20082;-78
2023/05/03 05:41:06;;;;;;;12.45;6.15;;;5.60;99.90;;;;;;4955040;28;20051;-79
2023/05/03 05:43:32;;;;;;;11.15;7.10;;;5.70;99.90;;;;;;4955683;29;20050;-78
2023/05/03 05:45:58;;;;;;;9.25;5.55;;;5.70;99.90;;;;;;4938185;29;20375;-78
2023/05/03 05:48:24;;;;;;;9.48;5.78;;;5.90;99.90;;;;;;4955417;29;20117;-79
2023/05/03 05:50:49;;;;;;;10.68;5.95;;;5.90;99.90;;;;;;4937752;29;20418;-78
2023/05/03 05:53:15;;;;;;;11.68;4.97;;;6.00;99.90;;;;;;4936588;29;20119;-79
2023/05/03 05:55:41;;;;;;;11.13;5.75;;;6.10;99.90;;;;;;4936341;29;20090;-78
2023/05/03 05:58:06;;;;;;;14.05;5.85;;;6.20;99.90;;;;;;4942174;29;20035;-79
2023/05/03 06:00:32;;;;;;;10.43;5.32;;;6.30;99.90;;;;;;4941858;28;20069;-79
2023/05/03 06:02:58;;;;;;;11.75;5.47;;;6.40;99.90;;;;;;4941547;29;20054;-79
2023/05/03 06:05:24;;;;;;;10.63;5.03;;;6.50;99.90;;;;;;4941888;29;20122;-81
2023/05/03 06:07:50;;;;;;;11.10;5.22;;;6.50;99.90;;;;;;4926306;29;20127;-78
2023/05/03 06:10:16;;;;;;;11.25;5.25;;;6.60;99.90;;;;;;4941377;28;20135;-78
2023/05/03 06:12:41;;;;;;;10.73;5.20;;;6.70;99.90;;;;;;4939535;29;20391;-79
2023/05/03 06:15:08;;;;;;;13.02;5.22;;;6.80;99.90;;;;;;4941563;29;20123;-78
2023/05/03 06:17:35;;;;;;;8.82;5.20;;;6.90;99.90;;;;;;4958225;28;20380;-78
2023/05/03 06:20:01;;;;;;;10.25;5.05;;;6.90;99.90;;;;;;4926230;29;20395;-78
2023/05/03 06:22:27;;;;;;;8.60;4.88;;;7.00;99.90;;;;;;4941060;29;20172;-79
2023/05/03 06:24:53;;;;;;;8.32;4.32;;;7.00;99.90;;;;;;4941102;29;20440;-80
2023/05/03 06:27:19;;;;;;;11.75;5.30;;;7.10;99.90;;;;;;4940957;29;20559;-79
2023/05/03 06:29:46;;;;;;;9.20;4.32;;;7.10;99.90;;;;;;4941132;29;20130;-79
2023/05/03 06:32:11;;;;;;;7.07;3.90;;;7.10;99.90;;;;;;4940225;29;20053;-80
2023/05/03 06:34:37;;;;;;;6.63;4.00;;;7.20;99.90;;;;;;4942197;29;20126;-81
2023/05/03 06:37:02;;;;;;;8.45;4.10;;;7.20;99.90;;;;;;4941592;29;20125;-81
2023/05/03 06:39:28;;;;;;;5.18;3.47;;;7.30;99.90;;;;;;4941833;29;20043;-79
2023/05/03 06:41:54;;;;;;;10.13;3.97;;;7.30;99.90;;;;;;4941292;29;20051;-80
2023/05/03 06:44:19;;;;;;;6.50;3.20;;;7.30;99.90;;;;;;4941741;29;20043;-81
2023/05/03 06:46:45;;;;;;;7.00;3.22;;;7.30;99.90;;;;;;4941939;29;20050;-82
2023/05/03 06:49:11;;;;;;;7.40;3.60;;;7.40;99.90;;;;;;4958320;29;20411;-81
2023/05/03 06:51:36;;;;;;;14.38;3.60;;;7.40;99.90;;;;;;4958791;28;20047;-81
2023/05/03 06:54:05;;;;;;;4.80;3.20;;;7.50;99.90;;;;;;4958274;28;20043;-82
2023/05/03 06:56:37;;;;;;;12.45;3.53;;;7.50;99.90;;;;;;4958370;28;20098;-82
2023/05/03 06:59:03;;;;;;;6.05;2.80;;;7.60;99.90;;;;;;4966921;28;20522;-81
2023/05/03 07:01:30;;;;;;;5.82;2.72;;;7.70;99.90;;;;;;4950414;28;20131;-82
2023/05/03 07:03:55;;;;;;;9.80;2.47;;;7.80;99.90;;;;;;4941156;29;20105;-80
2023/05/03 07:06:24;;;;;;;4.82;2.47;;;7.90;99.90;;;;;;4958244;28;20035;-81
2023/05/03 07:08:51;;;;;;;6.78;2.45;;;8.00;99.90;;;;;;4941141;29;20044;-81
2023/05/03 07:11:23;;;;;;;6.03;2.30;;;8.10;99.90;;;;;;4957602;28;20075;-80
2023/05/03 07:13:53;;;;;;;6.70;2.03;;;8.20;99.90;;;;;;4938848;29;20373;-79
2023/05/03 07:16:19;;;;;;;9.38;1.75;;;8.20;99.90;;;;;;4952737;29;20097;-79
2023/05/03 07:18:46;;;;;;;4.10;1.20;;;8.30;99.90;;;;;;4940895;29;20580;-81
2023/05/03 07:21:13;;;;;;;3.85;1.27;;;8.30;99.90;;;;;;4957126;28;20114;-79
2023/05/03 07:23:39;;;;;;;2.78;1.25;;;8.30;99.90;;;;;;4957569;29;20047;-79
2023/05/03 07:26:05;;;;;;;3.88;1.40;;;8.40;99.90;;;;;;4940895;29;20050;-79
2023/05/03 07:28:30;;;;;;;3.80;1.20;;;8.50;99.90;;;;;;4955381;28;20040;-79
2023/05/03 07:30:57;;;;;;;4.55;1.27;;;8.60;99.90;;;;;;4954722;28;20055;-80
2023/05/03 07:33:22;;;;;;;8.05;2.03;;;8.70;99.90;;;;;;4938148;29;20162;-77
2023/05/03 07:35:49;;;;;;;3.63;1.40;;;8.90;99.90;;;;;;4939565;29;20094;-80
2023/05/03 07:38:15;;;;;;;4.60;1.40;;;9.00;99.90;;;;;;4939363;29;20043;-80
2023/05/03 07:40:41;;;;;;;5.57;1.30;;;9.20;99.90;;;;;;4946341;29;20130;-75
2023/05/03 07:43:10;;;;;;;4.05;1.70;;;9.20;99.90;;;;;;4951642;29;20118;-77
2023/05/03 07:45:37;;;;;;;6.65;1.95;;;9.30;99.90;;;;;;4929225;29;20051;-79
2023/05/03 07:48:03;;;;;;;5.10;1.40;;;9.40;99.90;;;;;;4940492;29;20177;-79
2023/05/03 07:50:29;;;;;;;5.57;1.45;;;9.50;99.90;;;;;;4940548;28;20043;-80
2023/05/03 07:52:55;;;;;;;6.82;1.63;;;9.60;99.90;;;;;;4956851;29;20376;-79
2023/05/03 07:55:21;;;;;;;2.92;1.30;;;9.60;99.90;;;;;;4939766;29;20078;-78
2023/05/03 07:57:47;;;;;;;4.47;1.33;;;9.70;99.90;;;;;;4956918;28;20073;-80
2023/05/03 08:00:16;;;;;;;5.97;1.38;;;9.70;99.90;;;;;;4956502;28;20503;-77
2023/05/03 08:02:41;;;;;;;6.50;1.75;;;9.90;99.90;;;;;;4956339;29;20058;-79
2023/05/03 08:05:09;;;;;;;3.85;1.30;;;10.10;99.90;;;;;;4939416;29;20042;-78
2023/05/03 08:07:34;;;;;;;5.32;1.30;;;10.30;99.90;;;;;;4956370;29;20047;-79
2023/05/03 08:10:01;;;;;;;3.90;1.38;;;10.30;99.90;;;;;;4956088;29;20098;-75
2023/05/03 08:12:26;;;;;;;3.53;1.13;;;10.30;99.90;;;;;;4939082;29;20094;-79
2023/05/03 08:14:53;;;;;;;5.93;1.25;;;10.30;99.90;;;;;;4939679;29;20387;-77
2023/05/03 08:17:19;;;;;;;5.18;1.50;;;10.40;99.90;;;;;;4947584;28;20054;-80
2023/05/03 08:19:46;;;;;;;4.57;1.25;;;10.40;99.90;;;;;;4942169;28;20043;-78
2023/05/03 08:22:12;;;;;;;5.18;1.30;;;10.50;99.90;;;;;;4957979;28;20043;-79
2023/05/03 08:24:41;;;;;;;5.30;1.30;;;10.60;99.90;;;;;;4958425;28;20050;-80
2023/05/03 08:27:08;;;;;;;5.35;1.35;;;10.60;99.90;;;;;;4975808;28;20042;-80
2023/05/03 08:29:36;;;;;;;6.50;1.48;;;10.80;99.90;;;;;;4942196;28;20062;-80
2023/05/03 08:32:03;;;;;;;6.50;1.63;;;11.10;99.90;;;;;;4975303;28;20117;-79
2023/05/03 08:34:29;;;;;;;2.35;1.30;;;11.20;99.90;;;;;;4975821;28;20046;-80
2023/05/03 08:36:55;;;;;;;4.35;1.30;;;11.30;99.90;;;;;;4958124;28;20076;-78
2023/05/03 08:39:23;;;;;;;3.08;1.00;;;11.60;99.90;;;;;;4957648;28;20051;-79
2023/05/03 08:41:49;;;;;;;3.65;1.20;;;11.70;99.90;;;;;;4958097;28;20051;-79
2023/05/03 08:44:24;;;;;;;6.10;1.30;;;11.90;99.90;;;;;;4957789;28;20118;-81
2023/05/03 08:46:50;;;;;;;3.35;1.23;;;12.20;99.90;;;;;;4958949;28;20109;-79
2023/05/03 08:49:17;;;;;;;3.33;1.10;;;12.10;99.90;;;;;;4958430;28;20475;-79
2023/05/03 08:51:48;;;;;;;3.42;1.20;;;12.00;99.90;;;;;;4957744;28;20475;-80
2023/05/03 08:54:16;;;;;;;4.15;1.27;;;12.00;99.90;;;;;;4949770;29;20118;-82
2023/05/03 08:56:43;;;;;;;3.50;1.30;;;11.80;99.90;;;;;;4922583;29;20098;-81
2023/05/03 08:59:13;;;;;;;3.85;1.30;;;11.50;99.90;;;;;;4939354;29;20054;-82
2023/05/03 09:01:40;;;;;;;3.00;1.30;;;11.40;99.90;;;;;;4938902;29;20043;-81
2023/05/03 09:04:07;;;;;;;4.97;1.40;;;11.30;99.90;;;;;;4935787;29;20095;-81
2023/05/03 09:06:33;;;;;;;3.17;1.10;;;11.10;99.90;;;;;;4936240;29;20439;-80
2023/05/03 09:09:00;;;;;;;5.20;1.25;;;11.00;99.90;;;;;;4935917;29;20059;-81
2023/05/03 09:11:28;;;;;;;5.65;1.40;;;11.10;99.90;;;;;;4938318;29;20403;-83
2023/05/03 09:14:06;;;;;;;3.92;1.23;;;11.50;99.90;;;;;;4938574;29;20039;-82
2023/05/03 09:16:31;;;;;;;5.30;1.40;;;11.90;99.90;;;;;;4938284;29;20043;-82
2023/05/03 09:19:03;;;;;;;3.58;1.10;;;12.10;99.90;;;;;;4938599;29;20050;-82
2023/05/03 09:21:32;;;;;;;4.50;1.30;;;12.10;99.90;;;;;;4955499;28;20035;-82
2023/05/03 09:23:58;;;;;;;3.15;1.20;;;12.10;99.90;;;;;;4938472;29;20047;-81
2023/05/03 09:26:28;;;;;;;2.70;1.10;;;12.40;99.90;;;;;;4938493;29;20107;-81
2023/05/03 09:28:55;;;;;;;4.20;1.10;;;12.80;99.90;;;;;;4955646;29;20047;-82
2023/05/03 09:31:21;;;;;;;3.47;1.10;;;13.10;99.90;;;;;;4955129;28;20047;-82
2023/05/03 09:33:46;;;;;;;2.42;0.95;;;13.30;99.90;;;;;;4938862;29;20391;-81
2023/05/03 09:36:12;;;;;;;4.68;1.33;;;13.40;99.90;;;;;;4938846;29;20449;-82
2023/05/03 09:38:38;;;;;;;3.28;1.00;;;13.60;99.90;;;;;;4955532;28;20503;-81
2023/05/03 09:41:06;;;;;;;6.85;1.20;;;13.80;99.90;;;;;;4938201;29;20117;-82
2023/05/03 09:43:33;;;;;;;5.10;0.95;;;13.90;99.90;;;;;;4938177;29;20035;-82
2023/05/03 09:46:12;;;;;;;3.33;1.10;;;14.00;99.90;;;;;;4938182;29;20056;-81
2023/05/03 09:48:39;;;;;;;3.90;1.05;;;14.20;99.90;;;;;;4938625;29;20062;-82
2023/05/03 09:51:06;;;;;;;3.65;1.00;;;14.60;99.90;;;;;;4937760;29;20070;-82
2023/05/03 09:53:33;;;;;;;4.53;1.10;;;14.80;99.90;;;;;;4921730;29;20043;-82
2023/05/03 09:56:03;;;;;;;3.60;1.20;;;15.10;99.90;;;;;;4938179;29;20043;-80
2023/05/03 10:30:49;;;;;;;;;;;15.40;99.80;;;;;;4987850;23;20059;-83
2023/05/03 10:33:15;;;;;;;3.60;1.20;;;15.60;99.60;;;;;;4955414;28;19929;-82
2023/05/03 10:35:42;;;;;;;2.92;1.30;;;15.80;99.50;;;;;;4955633;28;20075;-79
2023/05/03 10:38:21;;;;;;;6.13;1.27;;;16.10;98.90;;;;;;4954167;29;20403;-81
2023/05/03 10:40:47;;;;;;;4.78;1.60;;;16.10;97.60;;;;;;4955912;28;20101;-80
2023/05/03 10:43:31;;;;;;;5.03;1.40;;;15.70;97.80;;;;;;4958162;28;20047;-81
2023/05/03 10:46:01;;;;;;;3.80;1.33;;;15.40;98.30;;;;;;4941570;29;20039;-82
2023/05/03 10:48:28;;;;;;;4.00;1.45;;;15.60;98.60;;;;;;4941828;29;20047;-81
2023/05/03 10:50:54;;;;;;;4.90;1.67;;;15.90;98.60;;;;;;4956511;28;20039;-81
2023/05/03 10:53:35;;;;;;;5.22;1.40;;;16.10;98.10;;;;;;4957592;28;20042;-81
2023/05/03 10:56:06;;;;;;;3.00;1.10;;;16.20;96.90;;;;;;4957563;28;20087;-80
2023/05/03 10:58:42;;;;;;;2.45;1.45;;;16.10;97.40;;;;;;4957075;29;20047;-80
2023/05/03 11:01:11;;;;;;;;;;;16.10;97.60;;;;;;4955952;28;20074;-82
2023/05/03 11:03:40;;;;;;;9.20;1.98;;;16.30;97.80;;;;;;4930504;29;20297;-80
2023/05/03 11:06:06;;;;;;;4.78;1.40;;;16.20;97.10;;;;;;4941109;29;20066;-81
2023/05/03 11:08:36;;;;;;;2.97;1.40;;;16.00;96.30;;;;;;4956884;29;20111;-80
2023/05/03 11:11:11;;;;;;;3.45;1.38;;;16.10;96.70;;;;;;4940307;29;20043;-81
2023/05/03 11:13:37;;;;;;;3.78;1.70;;;16.20;96.70;;;;;;4956780;29;20047;-81
2023/05/03 11:16:04;;;;;;;5.07;1.50;;;16.20;96.60;;;;;;4958086;28;20042;-82
2023/05/03 11:18:31;;;;;;;3.63;1.83;;;16.20;96.40;;;;;;4956197;28;20109;-81
2023/05/03 11:20:57;;;;;;;5.35;1.50;;;16.40;96.40;;;;;;4956466;28;20054;-82
2023/05/03 11:23:38;;;;;;;5.32;1.50;;;16.60;95.60;;;;;;4957403;28;20051;-81
2023/05/03 11:26:07;;;;;;;4.65;1.50;;;16.80;94.60;;;;;;4957870;28;20162;-81
2023/05/03 11:28:32;;;;;;;7.78;1.63;;;17.00;94.90;;;;;;4956667;28;20046;-82
2023/05/03 11:31:00;;;;;;;5.22;1.50;;;17.00;94.20;;;;;;4956107;28;20039;-82
2023/05/03 11:33:28;;;;;;;2.28;1.30;;;17.10;94.50;;;;;;4956164;29;20475;-80
2023/05/03 11:35:57;;;;;;;4.75;1.40;;;17.20;94.70;;;;;;4940631;29;20079;-80
2023/05/03 11:38:25;;;;;;;4.53;1.85;;;17.10;94.50;;;;;;4957969;29;20043;-82
2023/05/03 11:40:51;;;;;;;3.08;1.80;;;17.20;94.20;;;;;;4956939;28;20058;-83
2023/05/03 11:43:17;;;;;;;4.25;1.60;;;17.30;93.90;;;;;;4939675;28;20027;-81
2023/05/03 11:45:44;;;;;;;5.15;1.98;;;17.40;93.30;;;;;;4940096;29;20041;-79
2023/05/03 11:48:15;;;;;;;6.25;2.00;;;17.40;92.80;;;;;;4955612;28;20443;-81
2023/05/03 11:50:44;;;;;;;5.82;1.77;;;17.30;92.00;;;;;;4956910;28;20394;-79
2023/05/03 11:53:14;;;;;;;2.97;1.60;;;17.40;92.90;;;;;;4938887;29;20066;-81
2023/05/03 11:55:42;;;;;;;5.35;1.50;;;17.40;92.50;;;;;;4955384;29;20110;-80
2023/05/03 11:58:19;;;;;;;4.03;1.30;;;17.40;92.30;;;;;;4957858;28;20078;-80
2023/05/03 12:00:49;;;;;;;4.75;1.63;;;17.30;92.70;;;;;;4956621;28;20054;-79
2023/05/03 12:03:23;;;;;;;5.43;1.90;;;17.30;92.40;;;;;;4939372;29;20043;-80
2023/05/03 12:05:51;;;;;;;3.92;1.42;;;17.40;92.50;;;;;;4955407;29;20050;-82
2023/05/03 12:08:20;;;;;;;5.22;1.80;;;17.60;92.60;;;;;;4956513;28;20391;-82
2023/05/03 12:10:49;;;;;;;5.30;1.50;;;17.70;92.50;;;;;;4955895;28;20076;-81
2023/05/03 12:13:35;;;;;;;3.72;1.58;;;17.70;91.60;;;;;;4954601;29;20042;-84
2023/05/03 12:16:02;;;;;;;3.45;1.45;;;17.70;91.20;;;;;;4955482;29;20039;-82
2023/05/03 12:18:55;;;;;;;3.95;1.75;;;17.90;92.00;;;;;;4956568;28;20039;-82
2023/05/03 12:21:22;;;;;;;4.88;1.60;;;18.00;90.80;;;;;;4955096;28;20058;-82
2023/05/03 12:23:48;;;;;;;5.30;1.70;;;18.00;90.70;;;;;;4955083;29;20058;-80
2023/05/03 12:26:15;;;;;;;4.50;1.77;;;18.00;90.30;;;;;;4955003;28;20463;-81
2023/05/03 12:28:41;;;;;;;5.43;1.85;;;18.00;90.40;;;;;;4954841;28;20522;-81
2023/05/03 12:31:07;;;;;;;4.57;1.60;;;18.10;90.80;;;;;;4954535;29;20130;-81
2023/05/03 12:33:33;;;;;;;6.22;1.95;;;18.10;90.70;;;;;;4955462;29;20043;-83
2023/05/03 12:35:58;;;;;;;4.32;1.70;;;18.20;90.40;;;;;;4939174;29;20043;-82
2023/05/03 12:38:24;;;;;;;4.45;2.05;;;18.40;90.20;;;;;;4955302;29;20043;-81
2023/05/03 12:40:50;;;;;;;4.10;2.00;;;18.40;90.20;;;;;;4955241;29;20049;-81
2023/05/03 12:43:15;;;;;;;5.25;1.80;;;18.40;89.70;;;;;;4954999;29;20058;-80
2023/05/03 12:45:41;;;;;;;4.75;1.95;;;18.50;90.00;;;;;;4955694;29;20047;-83
2023/05/03 12:48:17;;;;;;;5.88;2.30;;;18.80;89.20;;;;;;4955535;28;20043;-82
2023/05/03 12:50:43;;;;;;;4.68;2.00;;;18.80;87.30;;;;;;4944656;28;20059;-83
2023/05/03 12:53:09;;;;;;;4.15;2.00;;;18.80;87.40;;;;;;4935926;29;20399;-81
2023/05/03 12:55:34;;;;;;;3.97;1.83;;;18.80;87.90;;;;;;4948051;29;20053;-80
2023/05/03 12:58:00;;;;;;;5.10;2.45;;;18.90;87.50;;;;;;4955023;29;20050;-82
2023/05/03 13:00:26;;;;;;;3.67;2.10;;;19.00;87.60;;;;;;4954835;28;20407;-82
2023/05/03 13:02:52;;;;;;;4.30;2.20;;;19.20;87.20;;;;;;4955312;28;20062;-85
2023/05/03 13:05:18;;;;;;;5.47;2.20;;;19.20;87.60;;;;;;4956026;28;20047;-81
2023/05/03 13:07:44;;;;;;;5.07;2.40;;;19.30;87.20;;;;;;4938681;29;20054;-81
2023/05/03 13:10:10;;;;;;;6.20;2.55;;;19.30;84.70;;;;;;4938361;29;20464;-80
2023/05/03 13:12:36;;;;;;;7.80;2.03;;;19.30;85.20;;;;;;4954884;28;20047;-82
2023/05/03 13:15:03;;;;;;;2.85;2.05;;;19.40;86.00;;;;;;4954912;29;20078;-83
2023/05/03 13:17:30;;;;;;;6.57;2.95;;;19.60;85.70;;;;;;4954702;29;20134;-78
2023/05/03 13:19:56;;;;;;;4.93;2.35;;;19.70;85.10;;;;;;4954946;28;20043;-78
2023/05/03 13:22:22;;;;;;;7.32;2.50;;;19.60;84.40;;;;;;4953754;28;20172;-80
2023/05/03 13:24:48;;;;;;;5.72;2.50;;;19.50;84.20;;;;;;4953481;29;20035;-82
2023/05/03 13:27:15;;;;;;;4.78;2.28;;;19.50;83.80;;;;;;4954525;28;20035;-81
2023/05/03 13:29:41;;;;;;;4.07;2.20;;;19.50;84.10;;;;;;4954488;29;20095;-86
2023/05/03 13:32:07;;;;;;;6.40;2.30;;;19.60;83.10;;;;;;4953845;28;20051;-82
2023/05/03 13:34:33;;;;;;;4.68;2.40;;;19.80;82.30;;;;;;4955598;29;20061;-83
2023/05/03 13:37:00;;;;;;;5.45;2.60;;;20.00;82.00;;;;;;4954703;29;20050;-83
2023/05/03 13:39:26;;;;;;;6.13;2.28;;;19.90;81.50;;;;;;4954208;29;20043;-86
2023/05/03 13:41:51;;;;;;;6.13;2.58;;;19.80;81.40;;;;;;4955774;29;20043;-82
2023/05/03 13:44:18;;;;;;;4.55;2.50;;;19.90;80.50;;;;;;4953839;28;20050;-83
2023/05/03 13:46:43;;;;;;;6.03;2.55;;;19.90;81.10;;;;;;4938356;29;20043;-83
2023/05/03 13:49:09;;;;;;;8.43;2.53;;;20.00;81.30;;;;;;4954330;28;20050;-82
2023/05/03 13:51:36;;;;;;;5.97;2.45;;;20.10;80.40;;;;;;4955260;28;20142;-83
2023/05/03 13:54:05;;;;;;;3.92;2.30;;;20.20;81.10;;;;;;4954227;28;20153;-79
2023/05/03 13:56:31;;;;;;;5.32;2.17;;;20.30;81.00;;;;;;4956247;28;20042;-86
2023/05/03 13:58:57;;;;;;;4.93;2.40;;;20.40;80.40;;;;;;4941465;29;20043;-84
2023/05/03 14:01:24;;;;;;;4.18;2.42;;;20.60;81.20;;;;;;4960376;28;20142;-85
2023/05/03 14:03:51;;;;;;;3.97;2.30;;;20.50;79.70;;;;;;4966223;29;20044;-84
2023/05/03 14:06:16;;;;;;;6.30;2.30;;;20.60;80.10;;;;;;4972536;28;20047;-82
2023/05/03 14:08:42;;;;;;;4.70;3.03;;;20.70;79.50;;;;;;4975344;28;20050;-84
2023/05/03 14:11:15;;;;;;;6.45;2.60;;;20.80;78.40;;;;;;4960820;28;20083;-83
2023/05/03 14:13:42;;;;;;;8.00;2.60;;;20.90;77.70;;;;;;4957753;28;20090;-82
2023/05/03 14:16:15;;;;;;;5.00;2.30;;;20.80;77.90;;;;;;4957304;28;20090;-81
2023/05/03 14:18:41;;;;;;;4.57;2.28;;;20.80;76.70;;;;;;4958443;29;20103;-82
2023/05/03 14:21:06;;;;;;;5.72;2.20;;;20.90;77.30;;;;;;4960024;28;20077;-82
2023/05/03 14:23:32;;;;;;;5.03;2.40;;;21.00;77.20;;;;;;4958068;28;20088;-81
2023/05/03 14:25:58;;;;;;;3.55;2.08;;;20.90;75.20;;;;;;4957704;29;20047;-82
2023/05/03 14:28:24;;;;;;;5.50;2.30;;;20.80;74.90;;;;;;4953885;29;20054;-85
2023/05/03 14:30:50;;;;;;;4.72;2.40;;;20.80;75.40;;;;;;4957524;28;20403;-82
2023/05/03 14:33:16;;;;;;;7.15;2.33;;;20.80;75.50;;;;;;4958573;28;20113;-83
2023/05/03 14:35:42;;;;;;;2.45;2.00;;;20.90;75.00;;;;;;4958269;29;20062;-82
2023/05/03 14:38:08;;;;;;;6.18;2.03;;;21.00;74.70;;;;;;4957854;28;20141;-84
2023/05/03 14:40:34;;;;;;;4.13;2.05;;;21.00;73.70;;;;;;4959817;28;20070;-84
2023/05/03 14:42:59;;;;;;;4.38;2.28;;;21.00;73.60;;;;;;4959283;28;20046;-83
2023/05/03 14:45:25;;;;;;;5.57;2.00;;;21.00;73.20;;;;;;4941615;29;20043;-84
2023/05/03 14:47:51;;;;;;;5.70;2.38;;;20.90;72.40;;;;;;4957486;29;20050;-84
2023/05/03 14:50:17;;;;;;;4.90;2.05;;;20.80;71.60;;;;;;4956995;28;20055;-82
2023/05/03 14:52:42;;;;;;;4.15;2.30;;;20.80;71.20;;;;;;4958736;28;20035;-83
2023/05/03 14:55:08;;;;;;;5.85;2.35;;;20.80;71.60;;;;;;4957717;28;20395;-83
2023/05/03 14:57:35;;;;;;;9.52;3.08;;;20.90;71.30;;;;;;4957687;29;20039;-82
2023/05/03 15:00:01;;;;;;;4.95;2.40;;;21.10;71.40;;;;;;4956767;28;20067;-82
2023/05/03 15:02:27;;;;;;;5.43;3.10;;;21.10;71.50;;;;;;4953750;28;20050;-83
2023/05/03 15:04:53;;;;;;;9.00;3.00;;;20.90;71.10;;;;;;4939596;29;20043;-83
2023/05/03 15:07:19;;;;;;;10.05;2.80;;;21.00;70.70;;;;;;4953919;29;20066;-84
2023/05/03 15:09:46;;;;;;;5.03;2.33;;;21.00;70.40;;;;;;4937468;29;20079;-85
2023/05/03 15:12:12;;;;;;;5.93;2.63;;;21.10;70.80;;;;;;4946647;29;20072;-85
2023/05/03 15:14:38;;;;;;;7.30;2.78;;;21.10;71.10;;;;;;4956411;28;20046;-82
2023/05/03 15:17:03;;;;;;;6.22;2.47;;;21.10;71.40;;;;;;4958318;28;20119;-82
2023/05/03 15:19:29;;;;;;;6.18;2.20;;;21.10;71.30;;;;;;4956858;28;20039;-86
2023/05/03 15:21:55;;;;;;;8.27;2.72;;;21.00;71.40;;;;;;4957643;28;20043;-82
2023/05/03 15:24:21;;;;;;;7.13;2.65;;;21.10;72.00;;;;;;4957733;28;20046;-82
2023/05/03 15:26:47;;;;;;;5.72;2.65;;;21.10;71.90;;;;;;4955297;28;20188;-84
2023/05/03 15:29:14;;;;;;;6.78;2.60;;;21.10;72.00;;;;;;4956232;29;20071;-85
2023/05/03 15:31:41;;;;;;;6.28;3.53;;;21.10;71.90;;;;;;4957489;28;20070;-85
2023/05/03 15:34:07;;;;;;;6.97;2.67;;;20.90;71.10;;;;;;4956252;29;20049;-83
2023/05/03 15:36:35;;;;;;;10.27;4.05;;;20.80;71.30;;;;;;4958240;28;20110;-86
2023/05/03 15:39:02;;;;;;;7.07;3.08;;;20.80;71.80;;;;;;4957883;28;20118;-82
2023/05/03 15:41:28;;;;;;;6.60;2.65;;;20.70;72.50;;;;;;4957233;28;20391;-84
2023/05/03 15:47:03;;;;;;;6.32;2.80;;;20.40;72.20;;;;;;4955586;29;20058;-83
2023/05/03 15:49:28;;;;;;;11.95;3.53;;;20.30;72.40;;;;;;4956557;28;20138;-85
2023/05/03 15:51:54;;;;;;;15.23;7.88;;;20.30;72.70;;;;;;4948582;28;20042;-81
2023/05/03 15:54:20;;;;;;;20.00;12.98;;;20.30;72.50;;;;;;4955596;28;20504;-84
2023/05/03 15:56:46;;;;;;;9.63;3.65;;;20.40;72.50;;;;;;4955980;28;20046;-84
2023/05/03 15:59:13;;;;;;;5.43;3.03;;;20.40;72.50;;;;;;4955757;28;20133;-82
2023/05/03 16:01:40;;;;;;;8.18;2.70;;;20.30;72.30;;;;;;4940552;29;20141;-83
2023/05/03 16:04:06;;;;;;;8.77;2.60;;;20.20;72.30;;;;;;4941013;29;20054;-82
2023/05/03 16:06:33;;;;;;;4.85;2.72;;;20.00;72.30;;;;;;4957053;28;20043;-83
2023/05/03 16:09:45;;;;;;;5.63;2.53;;;19.80;72.90;;;;;;4954982;28;20122;-82
2023/05/03 16:12:11;;;;;;;6.45;3.00;;;19.80;73.20;;;;;;4955023;28;20047;-80
2023/05/03 16:14:37;;;;;;;8.85;3.00;;;19.70;73.60;;;;;;4955130;29;20471;-82
2023/05/03 16:17:02;;;;;;;6.10;2.75;;;19.60;73.60;;;;;;4955147;29;20043;-82
2023/05/03 16:19:28;;;;;;;6.22;2.50;;;19.60;73.20;;;;;;4938677;29;20039;-82
2023/05/03 16:21:54;;;;;;;4.82;2.75;;;19.60;73.00;;;;;;4938960;29;20094;-81
2023/05/03 16:24:20;;;;;;;6.82;3.08;;;19.50;72.90;;;;;;4954274;28;20428;-77